sensor_id;sensor_type;location;lat;lon;timestamp;pressure;altitude;pressure_sealevel;temperature;humidity
23953;BME280;12163;49.316;6.092;2024-03-06T00:02:01;99547.81;;;6.55;76.29
23953;BME280;12163;49.316;6.092;2024-03-06T00:04:29;99555.22;;;6.43;76.60
23953;BME280;12163;49.316;6.092;2024-03-06T00:06:56;99551.94;;;6.31;76.09
23953;BME280;12163;49.316;6.092;2024-03-06T00:09:24;99568.75;;;6.22;76.34
23953;BME280;12163;49.316;6.092;2024-03-06T00:11:53;99574.84;;;6.12;76.59
23953;BME280;12163;49.316;6.092;2024-03-06T00:14:20;99573.19;;;6.06;76.87
23953;BME280;12163;49.316;6.092;2024-03-06T00:16:50;99580.13;;;6.02;77.31
23953;BME280;12163;49.316;6.092;2024-03-06T00:19:17;99585.69;;;5.96;77.50
23953;BME280;12163;49.316;6.092;2024-03-06T00:21:44;99578.41;;;5.91;77.17
23953;BME280;12163;49.316;6.092;2024-03-06T00:24:13;99589.63;;;5.88;77.32
23953;BME280;12163;49.316;6.092;2024-03-06T00:26:40;99594.66;;;5.85;77.93
23953;BME280;12163;49.316;6.092;2024-03-06T00:29:07;99602.97;;;5.83;77.55
23953;BME280;12163;49.316;6.092;2024-03-06T00:31:34;99604.28;;;5.81;77.90
23953;BME280;12163;49.316;6.092;2024-03-06T00:34:01;99608.84;;;5.80;78.07
23953;BME280;12163;49.316;6.092;2024-03-06T00:36:27;99606.63;;;5.77;78.43
23953;BME280;12163;49.316;6.092;2024-03-06T00:38:54;99615.25;;;5.79;78.44
23953;BME280;12163;49.316;6.092;2024-03-06T00:41:20;99612.56;;;5.79;77.89
23953;BME280;12163;49.316;6.092;2024-03-06T00:43:47;99612.56;;;5.79;78.30
23953;BME280;12163;49.316;6.092;2024-03-06T00:46:13;99602.41;;;5.81;78.48
23953;BME280;12163;49.316;6.092;2024-03-06T00:48:40;99607.78;;;5.81;78.48
23953;BME280;12163;49.316;6.092;2024-03-06T00:51:07;99596.50;;;5.79;78.70
23953;BME280;12163;49.316;6.092;2024-03-06T00:53:34;99600.69;;;5.75;78.53
23953;BME280;12163;49.316;6.092;2024-03-06T00:56:02;99602.03;;;5.73;78.89
23953;BME280;12163;49.316;6.092;2024-03-06T00:58:28;99608.69;;;5.70;78.60
23953;BME280;12163;49.316;6.092;2024-03-06T01:00:55;99606.50;;;5.67;78.94
23953;BME280;12163;49.316;6.092;2024-03-06T01:03:21;99611.31;;;5.65;78.62
23953;BME280;12163;49.316;6.092;2024-03-06T01:05:48;99602.97;;;5.62;78.76
23953;BME280;12163;49.316;6.092;2024-03-06T01:08:15;99607.47;;;5.56;78.47
23953;BME280;12163;49.316;6.092;2024-03-06T01:10:44;99603.09;;;5.50;78.37
23953;BME280;12163;49.316;6.092;2024-03-06T01:13:10;99594.78;;;5.47;78.72
23953;BME280;12163;49.316;6.092;2024-03-06T01:15:37;99597.72;;;5.45;79.17
23953;BME280;12163;49.316;6.092;2024-03-06T01:18:04;99603.31;;;5.44;79.42
23953;BME280;12163;49.316;6.092;2024-03-06T01:20:31;99592.84;;;5.42;78.95
23953;BME280;12163;49.316;6.092;2024-03-06T01:22:57;99588.56;;;5.41;79.07
23953;BME280;12163;49.316;6.092;2024-03-06T01:25:24;99593.91;;;5.41;79.64
23953;BME280;12163;49.316;6.092;2024-03-06T01:27:51;99595.22;;;5.39;79.09
23953;BME280;12163;49.316;6.092;2024-03-06T01:30:17;99594.94;;;5.35;79.83
23953;BME280;12163;49.316;6.092;2024-03-06T01:32:44;99593.78;;;5.31;79.59
23953;BME280;12163;49.316;6.092;2024-03-06T01:35:10;99595.91;;;5.29;79.61
23953;BME280;12163;49.316;6.092;2024-03-06T01:37:37;99593.78;;;5.31;79.36
23953;BME280;12163;49.316;6.092;2024-03-06T01:40:04;99604.50;;;5.31;79.61
23953;BME280;12163;49.316;6.092;2024-03-06T01:42:31;99606.56;;;5.24;79.95
23953;BME280;12163;49.316;6.092;2024-03-06T01:44:57;99602.53;;;5.22;80.13
23953;BME280;12163;49.316;6.092;2024-03-06T01:47:24;99606.72;;;5.18;79.84
23953;BME280;12163;49.316;6.092;2024-03-06T01:49:50;99615.25;;;5.15;80.21
23953;BME280;12163;49.316;6.092;2024-03-06T01:52:17;99595.19;;;5.12;80.05
23953;BME280;12163;49.316;6.092;2024-03-06T01:54:45;99598.91;;;5.11;80.51
23953;BME280;12163;49.316;6.092;2024-03-06T01:57:12;99606.34;;;5.09;80.56
23953;BME280;12163;49.316;6.092;2024-03-06T01:59:39;99606.34;;;5.09;80.15
23953;BME280;12163;49.316;6.092;2024-03-06T02:02:07;99604.75;;;5.08;80.46
23953;BME280;12163;49.316;6.092;2024-03-06T02:04:34;99597.78;;;5.07;80.66
23953;BME280;12163;49.316;6.092;2024-03-06T02:07:01;99603.38;;;5.06;81.03
23953;BME280;12163;49.316;6.092;2024-03-06T02:09:28;99606.84;;;5.06;80.57
23953;BME280;12163;49.316;6.092;2024-03-06T02:11:55;99603.38;;;5.06;80.35
23953;BME280;12163;49.316;6.092;2024-03-06T02:14:21;99598.28;;;5.04;80.82
23953;BME280;12163;49.316;6.092;2024-03-06T02:16:48;99611.09;;;5.02;80.57
23953;BME280;12163;49.316;6.092;2024-03-06T02:19:14;99614.31;;;5.04;80.67
23953;BME280;12163;49.316;6.092;2024-03-06T02:21:42;99616.75;;;5.06;80.91
23953;BME280;12163;49.316;6.092;2024-03-06T02:24:09;99608.97;;;5.04;80.74
23953;BME280;12163;49.316;6.092;2024-03-06T02:26:37;99617.25;;;5.03;80.91
23953;BME280;12163;49.316;6.092;2024-03-06T02:29:04;99612.16;;;5.01;81.43
23953;BME280;12163;49.316;6.092;2024-03-06T02:31:32;99623.34;;;4.98;80.88
23953;BME280;12163;49.316;6.092;2024-03-06T02:33:59;99622.78;;;4.96;80.86
23953;BME280;12163;49.316;6.092;2024-03-06T02:36:30;99619.53;;;4.94;81.35
23953;BME280;12163;49.316;6.092;2024-03-06T02:38:58;99625.94;;;4.93;80.96
23953;BME280;12163;49.316;6.092;2024-03-06T02:41:24;99626.75;;;4.94;80.80
23953;BME280;12163;49.316;6.092;2024-03-06T02:43:51;99623.28;;;4.93;81.10
23953;BME280;12163;49.316;6.092;2024-03-06T02:46:18;99628.84;;;4.92;80.95
23953;BME280;12163;49.316;6.092;2024-03-06T02:48:45;99630.75;;;4.92;81.76
23953;BME280;12163;49.316;6.092;2024-03-06T02:51:11;99632.84;;;4.90;81.19
23953;BME280;12163;49.316;6.092;2024-03-06T02:53:37;99627.19;;;4.86;80.95
23953;BME280;12163;49.316;6.092;2024-03-06T02:56:04;99641.28;;;4.82;81.22
23953;BME280;12163;49.316;6.092;2024-03-06T02:58:31;99622.50;;;4.77;81.61
23953;BME280;12163;49.316;6.092;2024-03-06T03:00:58;99627.22;;;4.70;81.42
23953;BME280;12163;49.316;6.092;2024-03-06T03:03:25;99635.72;;;4.67;81.44
23953;BME280;12163;49.316;6.092;2024-03-06T03:05:51;99634.56;;;4.63;81.64
23953;BME280;12163;49.316;6.092;2024-03-06T03:08:17;99633.72;;;4.57;81.63
23953;BME280;12163;49.316;6.092;2024-03-06T03:10:44;99633.59;;;4.52;81.56
23953;BME280;12163;49.316;6.092;2024-03-06T03:13:11;99639.94;;;4.46;81.69
23953;BME280;12163;49.316;6.092;2024-03-06T03:15:38;99638.53;;;4.44;82.00
23953;BME280;12163;49.316;6.092;2024-03-06T03:18:04;99641.97;;;4.39;81.76
23953;BME280;12163;49.316;6.092;2024-03-06T03:20:31;99643.50;;;4.35;82.13
23953;BME280;12163;49.316;6.092;2024-03-06T03:22:57;99642.94;;;4.33;82.18
23953;BME280;12163;49.316;6.092;2024-03-06T03:25:24;99645.03;;;4.31;82.33
23953;BME280;12163;49.316;6.092;2024-03-06T03:27:51;99645.78;;;4.27;82.16
23953;BME280;12163;49.316;6.092;2024-03-06T03:30:17;99640.34;;;4.22;82.01
23953;BME280;12163;49.316;6.092;2024-03-06T03:32:47;99646.97;;;4.19;82.51
23953;BME280;12163;49.316;6.092;2024-03-06T03:35:13;99649.88;;;4.18;82.36
23953;BME280;12163;49.316;6.092;2024-03-06T03:37:40;99660.56;;;4.18;82.41
23953;BME280;12163;49.316;6.092;2024-03-06T03:40:07;99657.88;;;4.18;82.26
23953;BME280;12163;49.316;6.092;2024-03-06T03:42:33;99664.75;;;4.14;82.51
23953;BME280;12163;49.316;6.092;2024-03-06T03:45:00;99670.59;;;4.11;82.66
23953;BME280;12163;49.316;6.092;2024-03-06T03:47:26;99669.44;;;4.07;82.73
23953;BME280;12163;49.316;6.092;2024-03-06T03:49:53;99672.84;;;4.02;82.58
23953;BME280;12163;49.316;6.092;2024-03-06T03:52:35;99671.47;;;4.00;82.71
23953;BME280;12163;49.316;6.092;2024-03-06T03:55:01;99679.94;;;3.97;82.32
23953;BME280;12163;49.316;6.092;2024-03-06T03:57:28;99681.81;;;3.96;82.87
23953;BME280;12163;49.316;6.092;2024-03-06T03:59:54;99673.81;;;3.96;83.25
23953;BME280;12163;49.316;6.092;2024-03-06T04:02:21;99676.22;;;3.98;82.85
23953;BME280;12163;49.316;6.092;2024-03-06T04:04:48;99679.47;;;4.00;83.48
23953;BME280;12163;49.316;6.092;2024-03-06T04:07:15;99671.22;;;4.01;83.38
23953;BME280;12163;49.316;6.092;2024-03-06T04:09:42;99675.28;;;4.04;83.10
23953;BME280;12163;49.316;6.092;2024-03-06T04:12:09;99676.63;;;4.06;83.62
23953;BME280;12163;49.316;6.092;2024-03-06T04:14:35;99680.69;;;4.09;83.38
23953;BME280;12163;49.316;6.092;2024-03-06T04:17:01;99679.16;;;4.13;83.38
23953;BME280;12163;49.316;6.092;2024-03-06T04:19:30;99679.72;;;4.15;83.85
23953;BME280;12163;49.316;6.092;2024-03-06T04:21:57;99687.25;;;4.18;83.79
23953;BME280;12163;49.316;6.092;2024-03-06T04:24:23;99686.47;;;4.17;83.37
23953;BME280;12163;49.316;6.092;2024-03-06T04:26:49;99684.59;;;4.18;83.70
23953;BME280;12163;49.316;6.092;2024-03-06T04:29:16;99687.50;;;4.16;83.12
23953;BME280;12163;49.316;6.092;2024-03-06T04:31:42;99694.69;;;4.16;83.58
23953;BME280;12163;49.316;6.092;2024-03-06T04:34:09;99696.31;;;4.17;83.87
23953;BME280;12163;49.316;6.092;2024-03-06T04:36:35;99698.44;;;4.15;83.37
23953;BME280;12163;49.316;6.092;2024-03-06T04:39:02;99700.31;;;4.14;83.22
23953;BME280;12163;49.316;6.092;2024-03-06T04:41:33;99704.81;;;4.14;83.52
23953;BME280;12163;49.316;6.092;2024-03-06T04:44:00;99706.34;;;4.10;83.59
23953;BME280;12163;49.316;6.092;2024-03-06T04:46:27;99706.84;;;4.07;83.53
23953;BME280;12163;49.316;6.092;2024-03-06T04:48:53;99707.31;;;4.04;83.59
23953;BME280;12163;49.316;6.092;2024-03-06T04:51:20;99704.06;;;4.02;83.84
23953;BME280;12163;49.316;6.092;2024-03-06T04:53:46;99709.28;;;3.97;83.11
23953;BME280;12163;49.316;6.092;2024-03-06T04:56:12;99710.81;;;3.93;83.48
23953;BME280;12163;49.316;6.092;2024-03-06T04:58:40;99707.84;;;3.89;83.22
23953;BME280;12163;49.316;6.092;2024-03-06T05:01:07;99713.41;;;3.88;83.69
23953;BME280;12163;49.316;6.092;2024-03-06T05:03:33;99710.66;;;3.83;83.56
23953;BME280;12163;49.316;6.092;2024-03-06T05:06:17;99717.50;;;3.79;83.44
23953;BME280;12163;49.316;6.092;2024-03-06T05:09:01;99721.09;;;3.73;83.81
23953;BME280;12163;49.316;6.092;2024-03-06T05:11:46;99724.50;;;3.68;83.66
23953;BME280;12163;49.316;6.092;2024-03-06T05:14:30;99729.50;;;3.65;83.89
23953;BME280;12163;49.316;6.092;2024-03-06T05:17:14;99723.59;;;3.63;84.35
23953;BME280;12163;49.316;6.092;2024-03-06T05:19:58;99722.19;;;3.60;84.05
23953;BME280;12163;49.316;6.092;2024-03-06T05:22:42;99728.69;;;3.53;84.14
23953;BME280;12163;49.316;6.092;2024-03-06T05:25:26;99730.22;;;3.49;84.65
23953;BME280;12163;49.316;6.092;2024-03-06T05:28:10;99736.03;;;3.46;84.77
23953;BME280;12163;49.316;6.092;2024-03-06T05:30:54;99738.69;;;3.46;85.03
23953;BME280;12163;49.316;6.092;2024-03-06T05:33:37;99746.13;;;3.44;85.38
23953;BME280;12163;49.316;6.092;2024-03-06T05:36:21;99756.22;;;3.42;85.57
23953;BME280;12163;49.316;6.092;2024-03-06T05:39:05;99752.50;;;3.43;85.79
23953;BME280;12163;49.316;6.092;2024-03-06T05:41:51;99752.59;;;3.48;85.37
23953;BME280;12163;49.316;6.092;2024-03-06T05:44:35;99763.84;;;3.50;85.96
23953;BME280;12163;49.316;6.092;2024-03-06T05:47:18;99756.41;;;3.52;85.43
23953;BME280;12163;49.316;6.092;2024-03-06T05:50:06;99762.59;;;3.52;85.93
23953;BME280;12163;49.316;6.092;2024-03-06T05:52:51;99766.78;;;3.88;87.67
23953;BME280;12163;49.316;6.092;2024-03-06T05:55:35;99773.66;;;4.68;89.38
23953;BME280;12163;49.316;6.092;2024-03-06T05:58:19;99768.41;;;5.43;89.67
23953;BME280;12163;49.316;6.092;2024-03-06T06:00:46;99762.50;;;5.41;86.00
23953;BME280;12163;49.316;6.092;2024-03-06T06:03:12;99781.44;;;5.18;83.93
23953;BME280;12163;49.316;6.092;2024-03-06T06:05:39;99780.78;;;4.95;82.62
23953;BME280;12163;49.316;6.092;2024-03-06T06:08:06;99783.38;;;4.74;82.34
23953;BME280;12163;49.316;6.092;2024-03-06T06:10:33;99787.38;;;4.60;82.81
23953;BME280;12163;49.316;6.092;2024-03-06T06:12:59;99797.44;;;4.53;82.81
23953;BME280;12163;49.316;6.092;2024-03-06T06:15:26;99802.56;;;4.43;82.46
23953;BME280;12163;49.316;6.092;2024-03-06T06:17:52;99793.81;;;4.31;82.42
23953;BME280;12163;49.316;6.092;2024-03-06T06:20:19;99796.03;;;4.22;82.70
23953;BME280;12163;49.316;6.092;2024-03-06T06:22:46;99810.59;;;4.15;82.91
23953;BME280;12163;49.316;6.092;2024-03-06T06:25:13;99809.91;;;4.08;83.03
23953;BME280;12163;49.316;6.092;2024-03-06T06:27:39;99815.38;;;4.01;82.88
23953;BME280;12163;49.316;6.092;2024-03-06T06:30:06;99820.84;;;3.95;83.18
23953;BME280;12163;49.316;6.092;2024-03-06T06:32:38;99818.66;;;3.92;83.02
23953;BME280;12163;49.316;6.092;2024-03-06T06:35:07;99825.53;;;3.88;82.93
23953;BME280;12163;49.316;6.092;2024-03-06T06:37:33;99838.28;;;3.86;82.85
23953;BME280;12163;49.316;6.092;2024-03-06T06:40:00;99835.06;;;3.84;83.21
23953;BME280;12163;49.316;6.092;2024-03-06T06:42:29;99834.00;;;3.85;83.46
23953;BME280;12163;49.316;6.092;2024-03-06T06:44:55;99846.88;;;3.88;83.46
23953;BME280;12163;49.316;6.092;2024-03-06T06:47:22;99844.31;;;3.93;83.41
23953;BME280;12163;49.316;6.092;2024-03-06T06:49:49;99849.53;;;3.99;83.91
23953;BME280;12163;49.316;6.092;2024-03-06T06:52:15;99852.66;;;4.08;84.16
23953;BME280;12163;49.316;6.092;2024-03-06T06:54:42;99859.00;;;4.18;84.44
23953;BME280;12163;49.316;6.092;2024-03-06T06:57:08;99863.75;;;4.28;84.39
23953;BME280;12163;49.316;6.092;2024-03-06T06:59:34;99859.06;;;4.35;83.79
23953;BME280;12163;49.316;6.092;2024-03-06T07:02:02;99861.34;;;4.43;84.17
23953;BME280;12163;49.316;6.092;2024-03-06T07:04:30;99863.09;;;4.49;84.04
23953;BME280;12163;49.316;6.092;2024-03-06T07:06:56;99868.31;;;4.55;84.15
23953;BME280;12163;49.316;6.092;2024-03-06T07:09:22;99870.00;;;4.61;83.77
23953;BME280;12163;49.316;6.092;2024-03-06T07:11:49;99873.13;;;4.70;83.57
23953;BME280;12163;49.316;6.092;2024-03-06T07:14:17;99868.41;;;4.77;83.67
23953;BME280;12163;49.316;6.092;2024-03-06T07:16:43;99870.38;;;4.81;83.79
23953;BME280;12163;49.316;6.092;2024-03-06T07:19:10;99866.19;;;4.85;83.35
23953;BME280;12163;49.316;6.092;2024-03-06T07:21:37;99870.00;;;4.89;83.30
23953;BME280;12163;49.316;6.092;2024-03-06T07:24:04;99866.03;;;4.92;83.60
23953;BME280;12163;49.316;6.092;2024-03-06T07:26:34;99861.47;;;4.92;83.25
23953;BME280;12163;49.316;6.092;2024-03-06T07:29:01;99865.78;;;4.93;83.12
23953;BME280;12163;49.316;6.092;2024-03-06T07:31:29;99868.22;;;4.94;83.22
23953;BME280;12163;49.316;6.092;2024-03-06T07:33:55;99868.78;;;4.96;83.14
23953;BME280;12163;49.316;6.092;2024-03-06T07:36:21;99866.69;;;4.98;82.82
23953;BME280;12163;49.316;6.092;2024-03-06T07:38:48;99870.25;;;5.04;83.07
23953;BME280;12163;49.316;6.092;2024-03-06T07:41:15;99876.75;;;5.08;82.87
23953;BME280;12163;49.316;6.092;2024-03-06T07:43:41;99876.34;;;5.16;83.13
23953;BME280;12163;49.316;6.092;2024-03-06T07:46:07;99880.97;;;5.20;83.00
23953;BME280;12163;49.316;6.092;2024-03-06T07:48:37;99880.47;;;5.23;82.74
23953;BME280;12163;49.316;6.092;2024-03-06T07:51:04;99886.47;;;5.30;82.96
23953;BME280;12163;49.316;6.092;2024-03-06T07:53:30;99884.47;;;5.37;82.59
23953;BME280;12163;49.316;6.092;2024-03-06T07:55:57;99896.38;;;5.46;82.60
23953;BME280;12163;49.316;6.092;2024-03-06T07:58:24;99882.91;;;5.58;82.96
23953;BME280;12163;49.316;6.092;2024-03-06T08:00:50;99893.44;;;5.64;82.62
23953;BME280;12163;49.316;6.092;2024-03-06T08:03:19;99900.56;;;5.75;82.55
23953;BME280;12163;49.316;6.092;2024-03-06T08:05:46;99902.31;;;5.81;82.29
23953;BME280;12163;49.316;6.092;2024-03-06T08:08:13;99904.50;;;5.84;82.51
23953;BME280;12163;49.316;6.092;2024-03-06T08:10:39;99904.00;;;5.87;82.51
23953;BME280;12163;49.316;6.092;2024-03-06T08:13:06;99905.06;;;5.86;82.58
23953;BME280;12163;49.316;6.092;2024-03-06T08:15:32;99905.63;;;5.88;82.26
23953;BME280;12163;49.316;6.092;2024-03-06T08:17:59;99906.91;;;5.86;81.85
23953;BME280;12163;49.316;6.092;2024-03-06T08:20:25;99911.97;;;5.82;82.50
23953;BME280;12163;49.316;6.092;2024-03-06T08:22:54;99910.47;;;5.75;82.60
23953;BME280;12163;49.316;6.092;2024-03-06T08:25:22;99911.13;;;5.65;82.86
23953;BME280;12163;49.316;6.092;2024-03-06T08:27:49;99920.72;;;5.61;82.83
23953;BME280;12163;49.316;6.092;2024-03-06T08:30:15;99927.44;;;5.64;83.85
23953;BME280;12163;49.316;6.092;2024-03-06T08:32:42;99920.84;;;5.71;84.01
23953;BME280;12163;49.316;6.092;2024-03-06T08:35:11;99924.53;;;5.82;82.92
23953;BME280;12163;49.316;6.092;2024-03-06T08:37:40;99923.19;;;5.79;82.67
23953;BME280;12163;49.316;6.092;2024-03-06T08:40:07;99923.75;;;5.81;82.51
23953;BME280;12163;49.316;6.092;2024-03-06T08:42:33;99930.28;;;5.90;82.95
23953;BME280;12163;49.316;6.092;2024-03-06T08:45:00;99935.22;;;5.98;83.26
23953;BME280;12163;49.316;6.092;2024-03-06T08:47:26;99943.03;;;6.00;82.14
23953;BME280;12163;49.316;6.092;2024-03-06T08:49:53;99937.91;;;5.98;82.59
23953;BME280;12163;49.316;6.092;2024-03-06T08:52:19;99948.78;;;6.08;82.33
23953;BME280;12163;49.316;6.092;2024-03-06T08:54:47;99947.56;;;6.16;82.48
23953;BME280;12163;49.316;6.092;2024-03-06T08:57:13;99944.94;;;6.21;81.94
23953;BME280;12163;49.316;6.092;2024-03-06T08:59:40;99959.78;;;6.28;82.09
23953;BME280;12163;49.316;6.092;2024-03-06T09:02:13;99952.31;;;6.30;81.63
23953;BME280;12163;49.316;6.092;2024-03-06T09:04:43;99953.41;;;6.34;82.09
23953;BME280;12163;49.316;6.092;2024-03-06T09:07:10;99963.34;;;6.34;81.58
23953;BME280;12163;49.316;6.092;2024-03-06T09:09:37;99966.25;;;6.32;82.02
23953;BME280;12163;49.316;6.092;2024-03-06T09:12:07;99959.84;;;6.33;82.06
23953;BME280;12163;49.316;6.092;2024-03-06T09:14:37;99959.91;;;6.38;81.88
23953;BME280;12163;49.316;6.092;2024-03-06T09:17:04;99960.28;;;6.47;81.36
23953;BME280;12163;49.316;6.092;2024-03-06T09:19:30;99958.44;;;6.47;80.83
23953;BME280;12163;49.316;6.092;2024-03-06T09:21:58;99955.25;;;6.50;81.08
23953;BME280;12163;49.316;6.092;2024-03-06T09:24:24;99955.00;;;6.52;80.91
23953;BME280;12163;49.316;6.092;2024-03-06T09:26:54;99961.50;;;6.56;81.03
23953;BME280;12163;49.316;6.092;2024-03-06T09:29:21;99955.81;;;6.52;80.35
23953;BME280;12163;49.316;6.092;2024-03-06T09:31:48;99953.38;;;6.51;80.19
23953;BME280;12163;49.316;6.092;2024-03-06T09:34:14;99956.44;;;6.59;80.55
23953;BME280;12163;49.316;6.092;2024-03-06T09:36:42;99964.53;;;6.64;80.81
23953;BME280;12163;49.316;6.092;2024-03-06T09:39:18;99967.28;;;6.69;80.62
23953;BME280;12163;49.316;6.092;2024-03-06T09:41:46;99966.28;;;6.75;80.37
23953;BME280;12163;49.316;6.092;2024-03-06T09:44:13;99969.53;;;6.77;80.12
23953;BME280;12163;49.316;6.092;2024-03-06T09:46:42;99967.28;;;6.69;79.01
23953;BME280;12163;49.316;6.092;2024-03-06T09:49:18;99970.53;;;6.71;79.72
23953;BME280;12163;49.316;6.092;2024-03-06T09:51:46;99969.03;;;6.80;80.33
23953;BME280;12163;49.316;6.092;2024-03-06T09:54:13;99982.31;;;6.91;80.67
23953;BME280;12163;49.316;6.092;2024-03-06T09:56:45;99971.19;;;7.04;80.06
23953;BME280;12163;49.316;6.092;2024-03-06T09:59:12;99976.47;;;7.21;80.35
23953;BME280;12163;49.316;6.092;2024-03-06T10:01:56;99957.56;;;7.37;79.88
23953;BME280;12163;49.316;6.092;2024-03-06T10:04:40;99954.19;;;7.52;79.04
23953;BME280;12163;49.316;6.092;2024-03-06T10:07:25;99955.94;;;7.63;77.85
23953;BME280;12163;49.316;6.092;2024-03-06T10:09:53;99963.25;;;7.72;78.03
23953;BME280;12163;49.316;6.092;2024-03-06T10:12:20;99955.03;;;7.84;77.76
23953;BME280;12163;49.316;6.092;2024-03-06T10:14:50;99964.50;;;7.96;77.49
23953;BME280;12163;49.316;6.092;2024-03-06T10:17:21;99960.59;;;8.14;77.47
23953;BME280;12163;49.316;6.092;2024-03-06T10:19:54;99961.19;;;8.21;76.69
23953;BME280;12163;49.316;6.092;2024-03-06T10:22:20;99962.69;;;8.38;77.01
23953;BME280;12163;49.316;6.092;2024-03-06T10:24:50;99959.03;;;8.59;76.90
23953;BME280;12163;49.316;6.092;2024-03-06T10:27:22;99958.81;;;8.80;75.96
23953;BME280;12163;49.316;6.092;2024-03-06T10:30:01;99962.38;;;8.91;73.96
23953;BME280;12163;49.316;6.092;2024-03-06T10:32:30;99959.94;;;8.89;73.23
23953;BME280;12163;49.316;6.092;2024-03-06T10:34:57;99952.94;;;8.88;73.48
23953;BME280;12163;49.316;6.092;2024-03-06T10:37:24;99954.03;;;8.92;73.10
23953;BME280;12163;49.316;6.092;2024-03-06T10:39:51;99955.13;;;8.96;73.17
23953;BME280;12163;49.316;6.092;2024-03-06T10:42:20;99956.22;;;9.05;73.46
23953;BME280;12163;49.316;6.092;2024-03-06T10:44:51;99958.13;;;9.20;73.42
23953;BME280;12163;49.316;6.092;2024-03-06T10:47:17;99953.59;;;9.45;73.78
23953;BME280;12163;49.316;6.092;2024-03-06T10:49:44;99941.50;;;9.68;73.83
23953;BME280;12163;49.316;6.092;2024-03-06T10:52:11;99934.19;;;9.93;73.08
23953;BME280;12163;49.316;6.092;2024-03-06T10:54:38;99944.97;;;10.18;72.39
23953;BME280;12163;49.316;6.092;2024-03-06T10:57:08;99954.94;;;10.32;71.20
23953;BME280;12163;49.316;6.092;2024-03-06T10:59:36;99949.78;;;10.41;70.81
23953;BME280;12163;49.316;6.092;2024-03-06T11:02:03;99956.47;;;10.53;69.97
23953;BME280;12163;49.316;6.092;2024-03-06T11:04:31;99953.47;;;10.70;68.56
23953;BME280;12163;49.316;6.092;2024-03-06T11:07:01;99953.16;;;10.81;67.13
23953;BME280;12163;49.316;6.092;2024-03-06T11:09:31;99954.16;;;10.95;67.35
23953;BME280;12163;49.316;6.092;2024-03-06T11:11:58;99946.28;;;11.04;67.11
23953;BME280;12163;49.316;6.092;2024-03-06T11:14:25;99958.66;;;11.15;67.07
23953;BME280;12163;49.316;6.092;2024-03-06T11:19:31;99957.47;;;11.31;65.64
23953;BME280;12163;49.316;6.092;2024-03-06T11:21:58;99952.63;;;11.33;65.57
23953;BME280;12163;49.316;6.092;2024-03-06T11:24:32;99951.50;;;11.39;66.17
23953;BME280;12163;49.316;6.092;2024-03-06T11:27:02;99953.63;;;11.42;65.17
23953;BME280;12163;49.316;6.092;2024-03-06T11:32:17;99950.31;;;11.55;65.36
23953;BME280;12163;49.316;6.092;2024-03-06T11:34:44;99953.00;;;11.60;64.87
23953;BME280;12163;49.316;6.092;2024-03-06T11:37:10;99962.09;;;11.69;64.37
23953;BME280;12163;49.316;6.092;2024-03-06T11:39:37;99962.31;;;11.77;63.75
23953;BME280;12163;49.316;6.092;2024-03-06T11:42:04;99964.97;;;11.82;63.37
23953;BME280;12163;49.316;6.092;2024-03-06T11:44:35;99960.59;;;11.86;63.15
23953;BME280;12163;49.316;6.092;2024-03-06T11:47:03;99960.97;;;11.74;62.57
23953;BME280;12163;49.316;6.092;2024-03-06T11:49:31;99968.06;;;11.66;62.42
23953;BME280;12163;49.316;6.092;2024-03-06T11:52:03;99963.25;;;11.63;61.74
23953;BME280;12163;49.316;6.092;2024-03-06T11:54:31;99967.88;;;11.57;60.75
23953;BME280;12163;49.316;6.092;2024-03-06T11:56:59;99958.91;;;11.62;61.18
23953;BME280;12163;49.316;6.092;2024-03-06T11:59:31;99956.94;;;11.72;61.60
23953;BME280;12163;49.316;6.092;2024-03-06T12:01:59;99957.09;;;11.85;61.16
23953;BME280;12163;49.316;6.092;2024-03-06T12:04:29;99955.75;;;11.83;60.25
23953;BME280;12163;49.316;6.092;2024-03-06T12:06:59;99953.94;;;11.78;60.64
23953;BME280;12163;49.316;6.092;2024-03-06T12:09:26;99965.75;;;11.87;61.11
23953;BME280;12163;49.316;6.092;2024-03-06T12:11:55;99955.38;;;11.99;60.68
23953;BME280;12163;49.316;6.092;2024-03-06T12:14:23;99960.69;;;12.09;60.03
23953;BME280;12163;49.316;6.092;2024-03-06T12:16:59;99957.84;;;12.19;60.84
23953;BME280;12163;49.316;6.092;2024-03-06T12:19:27;99953.47;;;12.28;60.29
23953;BME280;12163;49.316;6.092;2024-03-06T12:21:59;99952.25;;;12.39;60.25
23953;BME280;12163;49.316;6.092;2024-03-06T12:24:28;99944.59;;;12.46;59.22
23953;BME280;12163;49.316;6.092;2024-03-06T12:27:01;99960.78;;;12.51;58.99
23953;BME280;12163;49.316;6.092;2024-03-06T12:29:29;99959.69;;;12.52;58.87
23953;BME280;12163;49.316;6.092;2024-03-06T12:32:32;99951.94;;;12.88;56.02
23953;BME280;12163;49.316;6.092;2024-03-06T12:34:59;99958.00;;;13.03;55.28
23953;BME280;12163;49.316;6.092;2024-03-06T12:37:30;99957.25;;;12.98;54.43
23953;BME280;12163;49.316;6.092;2024-03-06T12:40:03;99950.59;;;12.90;54.16
23953;BME280;12163;49.316;6.092;2024-03-06T12:42:31;99945.41;;;12.94;53.51
23953;BME280;12163;49.316;6.092;2024-03-06T12:44:57;99958.59;;;13.00;53.95
23953;BME280;12163;49.316;6.092;2024-03-06T12:47:24;99957.38;;;13.11;54.09
23953;BME280;12163;49.316;6.092;2024-03-06T12:49:50;99951.72;;;13.26;53.45
23953;BME280;12163;49.316;6.092;2024-03-06T12:52:17;99959.16;;;13.39;52.67
23953;BME280;12163;49.316;6.092;2024-03-06T12:54:44;99949.31;;;13.43;51.92
23953;BME280;12163;49.316;6.092;2024-03-06T12:57:11;99952.84;;;13.44;52.02
23953;BME280;12163;49.316;6.092;2024-03-06T12:59:39;99957.97;;;13.45;51.71
23953;BME280;12163;49.316;6.092;2024-03-06T13:02:06;99957.72;;;13.42;50.91
23953;BME280;12163;49.316;6.092;2024-03-06T13:04:33;99954.06;;;13.33;51.02
23953;BME280;12163;49.316;6.092;2024-03-06T13:07:00;99948.66;;;13.33;51.82
23953;BME280;12163;49.316;6.092;2024-03-06T13:09:26;99954.91;;;13.33;51.14
23953;BME280;12163;49.316;6.092;2024-03-06T13:11:53;99948.66;;;13.33;51.59
23953;BME280;12163;49.316;6.092;2024-03-06T13:14:20;99946.19;;;13.36;51.78
23953;BME280;12163;49.316;6.092;2024-03-06T13:16:47;99949.31;;;13.43;51.58
23953;BME280;12163;49.316;6.092;2024-03-06T13:19:13;99937.28;;;13.49;51.68
23953;BME280;12163;49.316;6.092;2024-03-06T13:21:40;99943.53;;;13.49;51.23
23953;BME280;12163;49.316;6.092;2024-03-06T13:24:06;99948.59;;;13.56;51.30